Malaspina — WI6803 — position and weather

sailwx.info

Track history (hours):
 
Tides and Currents Weather Stations Pressure Air Temp Water Temp Dewpoint Dewpoint Depression Visibility Wind Speed Wind Dir Waves Ship Positions

Malaspina

Owner: ALASKA, STATE OF, ANCHORAGE, AK. More information available from US FCC via Universal Licensing System and Coast Guard Vessel Documentation Center.

Last reported at 2018-Aug-14 18:56 UTC. Time now 2018-Aug-15 12:36 UTC.
Position N 54°47' W 130°58'.

Type: Ship. MMSI: 367143000.

Date/timePositionNaut miles runAvg speedWind from/ knotsBaromVisibWave heightAir tempDewpointWater temp
2018-Aug-14 18:56N 54°47' W 130°58'716.8
2018-Aug-14 18:30N 54°42' W 130°50'916.9
2018-Aug-14 18:00N 54°35' W 130°40'816.9
2018-Aug-14 17:30N 54°27' W 130°38'817.0
2018-Aug-14 17:00N 54°19' W 130°36'816.7
2018-Aug-14 16:30N 54°13' W 130°25'4 8.8
2018-Aug-14 16:01N 54°17' W 130°22'1 0.8
2018-Aug-14 15:23N 54°18' W 130°21'0 0.0
2018-Aug-14 14:59N 54°18' W 130°21'0 0.0
2018-Aug-14 12:48N 54°18' W 130°21'1 2.1
2018-Aug-14 12:30N 54°17' W 130°22'4 8.1
2018-Aug-14 12:00N 54°13' W 130°21'714.5
2018-Aug-14 11:30N 54°17' W 130°32'815.1
2018-Aug-14 11:00N 54°24' W 130°37'816.0
2018-Aug-14 10:30N 54°32' W 130°39'815.7
2018-Aug-14 10:00N 54°39' W 130°46'816.0
2018-Aug-14 09:29N 54°45' W 130°55'  
2018-Aug-11 04:36N 54°43' W 130°53'216.4
2018-Aug-11 04:30N 54°42' W 130°51'816.3
2018-Aug-11 04:00N 54°36' W 130°42'815.4
2018-Aug-11 03:30N 54°29' W 130°38'816.6
2018-Aug-11 03:00N 54°21' W 130°36'815.7
2018-Aug-11 02:30N 54°14' W 130°27'4 7.4
2018-Aug-11 02:00N 54°16' W 130°22'1 2.7
2018-Aug-11 01:28N 54°18' W 130°21'0 0.0
2018-Aug-11 01:01N 54°18' W 130°21'0 0.0
2018-Aug-11 00:30N 54°18' W 130°21'0 0.0
2018-Aug-11 00:01N 54°18' W 130°21'0 0.0
2018-Aug-10 23:24N 54°18' W 130°21'0 0.0
2018-Aug-10 22:57N 54°18' W 130°21'0 0.0
2018-Aug-10 22:30N 54°18' W 130°21'0 0.0
2018-Aug-10 21:59N 54°18' W 130°21'1 3.1
2018-Aug-10 21:30N 54°16' W 130°22'4 7.3
2018-Aug-10 21:00N 54°14' W 130°27'815.1
2018-Aug-10 20:30N 54°20' W 130°36'816.1
2018-Aug-10 20:00N 54°28' W 130°38'  
2018-Aug-07 11:41N 54°48' W 130°59'315.7
2018-Aug-07 11:30N 54°45' W 130°55'815.6
2018-Aug-07 11:00N 54°40' W 130°47'815.1
2018-Aug-07 10:30N 54°33' W 130°40'815.2
2018-Aug-07 10:00N 54°26' W 130°37'815.3
2018-Aug-07 09:30N 54°18' W 130°35'815.8
2018-Aug-07 09:00N 54°13' W 130°24'5 9.5
2018-Aug-07 08:30N 54°18' W 130°22'0 0.5
2018-Aug-07 08:00N 54°18' W 130°21'0 0.0
2018-Aug-07 07:22N 54°18' W 130°21'0 0.0
2018-Aug-07 07:00N 54°18' W 130°21'0 0.0
2018-Aug-07 06:30N 54°18' W 130°21'0 0.0
2018-Aug-07 06:00N 54°18' W 130°21'0 0.0
2018-Aug-07 05:30N 54°18' W 130°21'0 0.0
2018-Aug-07 04:58N 54°18' W 130°21'0 0.0
2018-Aug-07 04:27N 54°18' W 130°21'0 0.0
2018-Aug-07 04:00N 54°18' W 130°21'2 4.4
2018-Aug-07 03:30N 54°16' W 130°21'4 7.3
2018-Aug-07 03:00N 54°14' W 130°27'715.0
2018-Aug-07 02:30N 54°20' W 130°36'816.2
2018-Aug-07 02:00N 54°28' W 130°38'816.2
2018-Aug-07 01:30N 54°36' W 130°42'816.0
2018-Aug-07 01:00N 54°42' W 130°51'815.7
2018-Aug-07 00:30N 54°48' W 130°59'  
Track history (hours):
 
Tides and Currents Weather Stations Pressure Air Temp Water Temp Dewpoint Dewpoint Depression Visibility Wind Speed Wind Dir Waves Ship Positions

Malaspina

Owner: ALASKA, STATE OF, ANCHORAGE, AK. More information available from US FCC via Universal Licensing System and Coast Guard Vessel Documentation Center.

Last reported at 2018-Aug-14 18:56 UTC. Time now 2018-Aug-15 12:36 UTC.
Position N 54°47' W 130°58'.

Type: Ship. MMSI: 367143000.

Date/timePositionNaut miles runAvg speedWind from/ knotsBaromVisibWave heightAir tempDewpointWater temp
2018-Aug-14 18:56N 54°47' W 130°58'716.8
2018-Aug-14 18:30N 54°42' W 130°50'916.9
2018-Aug-14 18:00N 54°35' W 130°40'816.9
2018-Aug-14 17:30N 54°27' W 130°38'817.0
2018-Aug-14 17:00N 54°19' W 130°36'816.7
2018-Aug-14 16:30N 54°13' W 130°25'4 8.8
2018-Aug-14 16:01N 54°17' W 130°22'1 0.8
2018-Aug-14 15:23N 54°18' W 130°21'0 0.0
2018-Aug-14 14:59N 54°18' W 130°21'0 0.0
2018-Aug-14 12:48N 54°18' W 130°21'1 2.1
2018-Aug-14 12:30N 54°17' W 130°22'4 8.1
2018-Aug-14 12:00N 54°13' W 130°21'714.5
2018-Aug-14 11:30N 54°17' W 130°32'815.1
2018-Aug-14 11:00N 54°24' W 130°37'816.0
2018-Aug-14 10:30N 54°32' W 130°39'815.7
2018-Aug-14 10:00N 54°39' W 130°46'816.0
2018-Aug-14 09:29N 54°45' W 130°55'  
2018-Aug-11 04:36N 54°43' W 130°53'216.4
2018-Aug-11 04:30N 54°42' W 130°51'816.3
2018-Aug-11 04:00N 54°36' W 130°42'815.4
2018-Aug-11 03:30N 54°29' W 130°38'816.6
2018-Aug-11 03:00N 54°21' W 130°36'815.7
2018-Aug-11 02:30N 54°14' W 130°27'4 7.4
2018-Aug-11 02:00N 54°16' W 130°22'1 2.7
2018-Aug-11 01:28N 54°18' W 130°21'0 0.0
2018-Aug-11 01:01N 54°18' W 130°21'0 0.0
2018-Aug-11 00:30N 54°18' W 130°21'0 0.0
2018-Aug-11 00:01N 54°18' W 130°21'0 0.0
2018-Aug-10 23:24N 54°18' W 130°21'0 0.0
2018-Aug-10 22:57N 54°18' W 130°21'0 0.0
2018-Aug-10 22:30N 54°18' W 130°21'0 0.0
2018-Aug-10 21:59N 54°18' W 130°21'1 3.1
2018-Aug-10 21:30N 54°16' W 130°22'4 7.3
2018-Aug-10 21:00N 54°14' W 130°27'815.1
2018-Aug-10 20:30N 54°20' W 130°36'816.1
2018-Aug-10 20:00N 54°28' W 130°38'  
2018-Aug-07 11:41N 54°48' W 130°59'315.7
2018-Aug-07 11:30N 54°45' W 130°55'815.6
2018-Aug-07 11:00N 54°40' W 130°47'815.1
2018-Aug-07 10:30N 54°33' W 130°40'815.2
2018-Aug-07 10:00N 54°26' W 130°37'815.3
2018-Aug-07 09:30N 54°18' W 130°35'815.8
2018-Aug-07 09:00N 54°13' W 130°24'5 9.5
2018-Aug-07 08:30N 54°18' W 130°22'0 0.5
2018-Aug-07 08:00N 54°18' W 130°21'0 0.0
2018-Aug-07 07:22N 54°18' W 130°21'0 0.0
2018-Aug-07 07:00N 54°18' W 130°21'0 0.0
2018-Aug-07 06:30N 54°18' W 130°21'0 0.0
2018-Aug-07 06:00N 54°18' W 130°21'0 0.0
2018-Aug-07 05:30N 54°18' W 130°21'0 0.0
2018-Aug-07 04:58N 54°18' W 130°21'0 0.0
2018-Aug-07 04:27N 54°18' W 130°21'0 0.0
2018-Aug-07 04:00N 54°18' W 130°21'2 4.4
2018-Aug-07 03:30N 54°16' W 130°21'4 7.3
2018-Aug-07 03:00N 54°14' W 130°27'715.0
2018-Aug-07 02:30N 54°20' W 130°36'816.2
2018-Aug-07 02:00N 54°28' W 130°38'816.2
2018-Aug-07 01:30N 54°36' W 130°42'816.0
2018-Aug-07 01:00N 54°42' W 130°51'815.7
2018-Aug-07 00:30N 54°48' W 130°59'  

Dump ship's entire track history